Time;durP1;ratioP1;P1;durP2;ratioP2;P2;SDS_P1;SDS_P2;PMS_P1;PMS_P2;Temp;Humidity;BMP_temperature;BMP_pressure;BME280_temperature;BME280_humidity;BME280_pressure;Samples;Min_cycle;Max_cycle;Signal;HPM_P1;HPM_P2
2022/11/12 00:02:08;;;;;;;28.40;12.70;;;;;;;3.42;100.00;100990.41;103957;1341;22521;-36
2022/11/12 00:04:33;;;;;;;30.50;10.50;;;;;;;3.45;100.00;100986.46;104005;1334;22135;-34
2022/11/12 00:06:59;;;;;;;28.40;13.80;;;;;;;3.47;100.00;100985.64;103587;1342;22221;-33
2022/11/12 00:09:25;;;;;;;31.90;12.80;;;;;;;3.51;100.00;100983.89;104019;1336;22176;-36
2022/11/12 00:11:50;;;;;;;23.40;13.40;;;;;;;3.57;100.00;100988.43;103979;1334;22201;-33
2022/11/12 00:14:16;;;;;;;48.70;16.10;;;;;;;3.55;100.00;100988.77;103979;1346;22144;-33
2022/11/12 00:16:41;;;;;;;25.30;11.20;;;;;;;3.58;100.00;100982.13;103946;1341;22172;-36
2022/11/12 00:19:07;;;;;;;19.40;8.50;;;;;;;3.57;100.00;100985.58;103898;1344;22152;-36
2022/11/12 00:21:33;;;;;;;13.20;8.20;;;;;;;3.60;100.00;100990.86;103853;1341;22489;-36
2022/11/12 00:23:59;;;;;;;16.70;8.50;;;;;;;3.61;100.00;100992.04;103930;1333;22065;-36
2022/11/12 00:26:24;;;;;;;23.30;10.10;;;;;;;3.61;100.00;100996.84;103969;1336;22609;-36
2022/11/12 00:28:51;;;;;;;24.60;11.40;;;;;;;3.58;100.00;100996.83;103966;1337;22535;-36
2022/11/12 00:31:16;;;;;;;18.60;11.40;;;;;;;3.57;100.00;100994.97;103870;1335;22544;-33
2022/11/12 00:33:42;;;;;;;24.40;12.60;;;;;;;3.55;100.00;100994.91;103996;1335;22268;-36
2022/11/12 00:36:09;;;;;;;20.70;10.40;;;;;;;3.52;100.00;100993.54;103892;1334;22158;-36
2022/11/12 00:38:34;;;;;;;26.90;11.80;;;;;;;3.54;100.00;100991.63;103955;1340;22260;-36
2022/11/12 00:41:00;;;;;;;10.50;7.40;;;;;;;3.50;100.00;100994.27;103986;1347;22090;-36
2022/11/12 00:43:26;;;;;;;22.50;10.10;;;;;;;3.46;100.00;100998.10;103687;1334;24291;-33
2022/11/12 00:45:51;;;;;;;22.00;11.50;;;;;;;3.43;100.00;100997.40;104021;1337;22202;-33
2022/11/12 00:48:17;;;;;;;15.90;8.60;;;;;;;3.43;100.00;101004.11;103448;1348;22629;-33
2022/11/12 00:50:43;;;;;;;22.60;12.10;;;;;;;3.46;100.00;101002.35;103958;1340;22121;-33
2022/11/12 00:53:08;;;;;;;29.90;13.90;;;;;;;3.43;100.00;101002.52;103882;1343;22851;-36
2022/11/12 00:55:34;;;;;;;22.00;11.00;;;;;;;3.42;100.00;100999.08;103986;1343;23002;-36
2022/11/12 00:58:00;;;;;;;20.20;10.30;;;;;;;3.41;100.00;100992.60;103996;1332;22057;-36
2022/11/12 01:00:25;;;;;;;22.50;10.50;;;;;;;3.37;100.00;100997.52;103754;1343;22511;-36
2022/11/12 01:02:51;;;;;;;22.20;10.90;;;;;;;3.33;100.00;100996.17;103461;1343;22079;-36
2022/11/12 01:05:17;;;;;;;17.90;9.00;;;;;;;3.28;100.00;100993.52;103693;1340;22170;-33
2022/11/12 01:07:43;;;;;;;15.00;7.00;;;;;;;3.24;100.00;100994.35;103959;1334;22187;-32
2022/11/12 01:10:09;;;;;;;21.10;8.50;;;;;;;3.24;100.00;100995.98;104010;1338;22129;-33
2022/11/12 01:12:35;;;;;;;24.20;9.30;;;;;;;3.29;100.00;100995.41;103937;1346;22209;-36
2022/11/12 01:15:01;;;;;;;26.40;11.20;;;;;;;3.39;100.00;100991.89;104011;1333;22531;-33
2022/11/12 01:17:26;;;;;;;32.40;11.70;;;;;;;3.53;100.00;100989.42;103981;1344;22302;-36
2022/11/12 01:19:52;;;;;;;17.10;9.30;;;;;;;3.62;100.00;100983.77;103976;1337;22163;-36
2022/11/12 01:22:17;;;;;;;29.90;12.30;;;;;;;3.69;100.00;100982.73;103991;1342;22165;-36
2022/11/12 01:24:43;;;;;;;7.20;5.60;;;;;;;3.75;100.00;100978.79;103987;1342;22177;-33
2022/11/12 01:27:08;;;;;;;28.40;12.20;;;;;;;3.80;100.00;100979.14;103858;1337;22526;-37
2022/11/12 01:29:35;;;;;;;25.60;10.80;;;;;;;3.77;100.00;100978.50;103926;1323;22190;-36
2022/11/12 01:32:00;;;;;;;17.80;9.50;;;;;;;3.76;100.00;100975.50;103971;1330;22242;-33
2022/11/12 01:34:26;;;;;;;15.80;7.80;;;;;;;3.72;100.00;100976.48;103991;1342;22507;-33
2022/11/12 01:36:52;;;;;;;17.80;9.70;;;;;;;3.68;100.00;100976.25;103999;1342;22216;-36
2022/11/12 01:39:17;;;;;;;34.40;11.30;;;;;;;3.67;100.00;100974.54;103993;1340;22200;-36
2022/11/12 01:41:43;;;;;;;10.20;5.30;;;;;;;3.67;100.00;100974.92;103989;1342;22109;-33
2022/11/12 01:44:14;;;;;;;16.90;8.90;;;;;;;3.64;100.00;100974.61;103977;1343;22234;-36
2022/11/12 01:46:45;;;;;;;18.70;10.70;;;;;;;3.66;100.00;100978.77;103618;1342;22310;-33
2022/11/12 01:49:13;;;;;;;15.80;9.20;;;;;;;3.66;100.00;100979.77;103998;1339;22645;-33
2022/11/12 01:51:41;;;;;;;25.00;9.10;;;;;;;3.68;100.00;100981.77;103996;1342;22231;-37
2022/11/12 01:54:08;;;;;;;20.60;11.40;;;;;;;3.69;100.00;100983.45;103930;1340;22151;-33
2022/11/12 01:56:34;;;;;;;16.70;9.70;;;;;;;3.69;100.00;100980.83;103927;1342;22541;-36
2022/11/12 01:59:02;;;;;;;26.40;10.30;;;;;;;3.67;100.00;100980.96;103995;1342;22199;-36
2022/11/12 02:01:28;;;;;;;19.70;9.40;;;;;;;3.63;100.00;100980.92;103978;1340;22128;-36
2022/11/12 02:03:54;;;;;;;16.10;8.40;;;;;;;3.56;100.00;100980.69;103875;1341;22530;-33
2022/11/12 02:06:20;;;;;;;30.80;14.00;;;;;;;3.50;100.00;100983.96;103606;1348;22295;-33
2022/11/12 02:08:46;;;;;;;23.10;9.50;;;;;;;3.47;100.00;100982.23;104003;1338;22065;-33
2022/11/12 02:11:13;;;;;;;21.60;11.70;;;;;;;3.48;100.00;100983.98;103989;1340;22065;-36
2022/11/12 02:16:08;;;;;;;15.30;9.10;;;;;;;3.47;100.00;100985.06;103981;1334;22156;-36
2022/11/12 02:18:34;;;;;;;8.20;5.20;;;;;;;3.48;100.00;100981.30;103882;1341;22083;-33
2022/11/12 02:21:03;;;;;;;23.10;11.40;;;;;;;3.42;100.00;100986.19;103954;1336;22365;-33
2022/11/12 02:23:28;;;;;;;25.90;10.40;;;;;;;3.39;100.00;100986.75;103915;1334;22201;-32
2022/11/12 02:25:54;;;;;;;19.40;11.30;;;;;;;3.36;100.00;100989.27;103820;1337;22555;-36
2022/11/12 02:28:20;;;;;;;19.80;10.10;;;;;;;3.27;100.00;100990.61;103988;1342;22116;-36
2022/11/12 02:30:48;;;;;;;15.80;8.90;;;;;;;3.20;100.00;100991.65;104021;1325;22200;-36
2022/11/12 02:33:14;;;;;;;19.50;8.10;;;;;;;3.15;100.00;100993.41;104003;1340;22173;-36
2022/11/12 02:35:40;;;;;;;26.90;12.80;;;;;;;3.13;100.00;100993.92;104024;1348;22279;-35
2022/11/12 02:38:06;;;;;;;34.90;13.80;;;;;;;3.18;100.00;100996.05;103990;1346;22215;-36
2022/11/12 02:40:31;;;;;;;23.30;10.40;;;;;;;3.18;100.00;100995.15;103966;1339;22239;-34
2022/11/12 02:42:58;;;;;;;23.20;11.40;;;;;;;3.17;100.00;100993.23;103974;1340;22518;-36
2022/11/12 02:45:23;;;;;;;19.00;9.40;;;;;;;3.08;100.00;100995.34;103998;1346;22101;-36
2022/11/12 02:47:49;;;;;;;24.10;11.60;;;;;;;3.00;100.00;100999.27;104020;1338;22483;-36
2022/11/12 02:50:15;;;;;;;11.80;6.50;;;;;;;2.93;100.00;100998.54;103973;1333;22157;-32
2022/11/12 02:52:40;;;;;;;22.30;10.60;;;;;;;2.90;100.00;100998.92;103912;1327;22363;-33
2022/11/12 02:55:07;;;;;;;22.40;10.30;;;;;;;2.86;100.00;101000.29;102945;1334;22185;-32
2022/11/12 02:57:33;;;;;;;20.20;9.50;;;;;;;2.78;100.00;100999.73;103960;1341;22366;-32
2022/11/12 02:59:58;;;;;;;21.20;11.00;;;;;;;2.73;100.00;101000.27;103958;1341;22988;-35
2022/11/12 03:02:24;;;;;;;21.40;11.90;;;;;;;2.68;100.00;101004.37;103975;1345;22552;-35
2022/11/12 03:04:49;;;;;;;22.70;12.30;;;;;;;2.63;100.00;101004.49;103962;1341;22514;-35
2022/11/12 03:07:15;;;;;;;24.70;9.90;;;;;;;2.63;100.00;101009.13;103982;1341;22429;-35
2022/11/12 03:09:41;;;;;;;19.30;10.00;;;;;;;2.60;100.00;101013.22;104033;1340;22188;-32
2022/11/12 03:12:06;;;;;;;16.70;8.20;;;;;;;2.61;100.00;101009.95;103966;1327;22268;-35
2022/11/12 03:14:32;;;;;;;22.20;10.50;;;;;;;2.71;100.00;101014.17;104024;1341;22518;-35
2022/11/12 03:16:57;;;;;;;17.20;10.40;;;;;;;2.81;100.00;101016.00;103964;1341;22346;-35
2022/11/12 03:19:23;;;;;;;22.10;10.80;;;;;;;2.84;100.00;101010.15;103830;1341;24411;-35
2022/11/12 03:21:48;;;;;;;21.40;13.00;;;;;;;2.82;100.00;101009.38;103458;1334;22577;-32
2022/11/12 03:24:14;;;;;;;26.10;11.30;;;;;;;2.84;100.00;101011.34;103818;1332;22530;-32
2022/11/12 03:26:40;;;;;;;11.30;6.50;;;;;;;2.79;100.00;101007.29;104028;1317;22031;-35
2022/11/12 03:29:05;;;;;;;23.10;13.20;;;;;;;2.75;100.00;101010.39;103971;1341;22066;-35
2022/11/12 03:31:31;;;;;;;25.60;10.50;;;;;;;2.63;100.00;101010.14;103780;1340;22618;-31
2022/11/12 03:33:57;;;;;;;20.80;8.20;;;;;;;2.57;100.00;101013.23;103983;1334;22082;-36
2022/11/12 03:36:22;;;;;;;9.50;6.50;;;;;;;2.50;100.00;101014.59;103923;1334;22710;-32
2022/11/12 03:38:48;;;;;;;22.00;11.20;;;;;;;2.46;100.00;101015.90;103883;1341;22172;-35
2022/11/12 03:41:14;;;;;;;19.60;9.10;;;;;;;2.40;100.00;101017.60;103703;1334;22300;-35
2022/11/12 03:43:39;;;;;;;23.00;11.40;;;;;;;2.34;100.00;101025.95;103980;1338;22170;-36
2022/11/12 03:46:05;;;;;;;24.30;11.50;;;;;;;2.30;100.00;101030.83;103976;1341;22531;-35
2022/11/12 03:48:30;;;;;;;21.50;12.00;;;;;;;2.24;100.00;101029.56;103945;1341;22230;-35
2022/11/12 03:50:57;;;;;;;29.10;12.80;;;;;;;2.17;100.00;101032.91;104019;1339;22175;-36
2022/11/12 03:53:22;;;;;;;18.90;10.30;;;;;;;2.08;100.00;101030.52;104023;1338;22145;-32
2022/11/12 03:55:48;;;;;;;22.20;9.30;;;;;;;2.01;100.00;101032.41;103950;1341;22014;-32
2022/11/12 03:58:14;;;;;;;32.50;14.10;;;;;;;1.97;100.00;101027.91;103970;1341;22184;-35
2022/11/12 04:00:39;;;;;;;23.50;11.60;;;;;;;1.91;100.00;101026.34;103774;1341;22518;-31
2022/11/12 04:03:05;;;;;;;16.50;9.60;;;;;;;1.92;100.00;101026.65;103978;1341;22516;-35
2022/11/12 04:10:30;;;;;;;16.60;8.50;;;;;;;1.92;100.00;101028.96;103940;1341;22169;-32
2022/11/12 04:15:25;;;;;;;30.70;13.50;;;;;;;1.97;100.00;101031.42;103993;1330;22195;-32
2022/11/12 04:22:49;;;;;;;17.50;8.40;;;;;;;1.97;100.00;101025.95;103993;1341;22446;-32
2022/11/12 04:27:44;;;;;;;18.80;10.40;;;;;;;1.86;100.00;101029.66;103973;1341;22179;-32
2022/11/12 04:32:45;;;;;;;22.90;11.50;;;;;;;1.78;100.00;101031.42;103591;1333;22205;-32
2022/11/12 04:35:12;;;;;;;18.00;10.10;;;;;;;1.73;100.00;101034.03;103976;1334;22061;-32
2022/11/12 04:44:58;;;;;;;17.00;9.00;;;;;;;1.57;100.00;101031.89;103929;1326;22538;-32
2022/11/12 04:45:23;;;;;;;24.80;10.50;;;;;;;1.52;100.00;101034.86;103888;1334;22511;-36
2022/11/12 04:47:48;;;;;;;21.80;10.50;;;;;;;1.52;100.00;101034.70;103957;1333;22058;-33
2022/11/12 04:50:16;;;;;;;13.70;7.80;;;;;;;1.53;100.00;101039.95;103951;1334;22615;-36
2022/11/12 04:52:41;;;;;;;19.20;10.00;;;;;;;1.48;100.00;101040.41;104002;1334;22518;-32
2022/11/12 04:55:07;;;;;;;17.60;10.40;;;;;;;1.48;100.00;101038.50;104002;1340;22133;-36
2022/11/12 04:57:33;;;;;;;17.30;10.50;;;;;;;1.48;100.00;101041.14;103947;1341;22521;-35
2022/11/12 04:59:59;;;;;;;24.10;11.60;;;;;;;1.47;100.00;101043.33;103985;1341;22580;-35
2022/11/12 05:02:24;;;;;;;17.30;8.40;;;;;;;1.46;100.00;101036.84;103749;1341;22482;-32
2022/11/12 05:04:50;;;;;;;31.00;12.10;;;;;;;1.43;100.00;101034.90;103657;1341;22103;-35
2022/11/12 05:07:16;;;;;;;18.30;10.30;;;;;;;1.51;100.00;101037.42;103813;1333;22073;-35
2022/11/12 05:09:42;;;;;;;20.60;10.80;;;;;;;1.60;100.00;101037.17;103978;1341;22024;-32
2022/11/12 05:12:07;;;;;;;28.50;10.70;;;;;;;1.64;100.00;101040.59;103623;1341;22583;-32
2022/11/12 05:14:33;;;;;;;23.70;10.60;;;;;;;1.67;100.00;101041.64;103906;1335;22183;-35
2022/11/12 05:16:59;;;;;;;15.60;7.10;;;;;;;1.66;100.00;101046.48;103882;1337;22535;-32
2022/11/12 05:19:24;;;;;;;19.40;9.10;;;;;;;1.64;100.00;101048.19;103967;1341;22530;-32
2022/11/12 05:24:19;;;;;;;14.10;7.10;;;;;;;1.61;100.00;101048.23;103999;1340;22146;-32
2022/11/12 05:26:44;;;;;;;13.10;6.40;;;;;;;1.61;100.00;101054.73;103991;1336;22507;-32
2022/11/12 05:29:10;;;;;;;8.50;5.50;;;;;;;1.65;100.00;101063.50;103896;1327;22029;-36
2022/11/12 05:31:36;;;;;;;14.70;6.40;;;;;;;1.65;100.00;101064.77;103955;1341;22441;-33
2022/11/12 05:34:02;;;;;;;20.30;9.40;;;;;;;1.64;100.00;101064.08;102800;1326;22384;-33
2022/11/12 05:36:28;;;;;;;20.70;11.00;;;;;;;1.61;100.00;101060.77;103853;1341;22177;-33
2022/11/12 05:38:54;;;;;;;10.40;5.30;;;;;;;1.54;100.00;101056.26;103983;1340;22095;-33
2022/11/12 05:41:19;;;;;;;22.40;10.10;;;;;;;1.51;100.00;101055.93;103637;1333;22369;-33
2022/11/12 05:43:45;;;;;;;27.20;9.70;;;;;;;1.46;100.00;101057.65;103861;1341;22618;-37
2022/11/12 05:46:10;;;;;;;16.10;8.90;;;;;;;1.41;100.00;101057.10;103922;1341;22648;-33
2022/11/12 05:48:36;;;;;;;23.30;11.40;;;;;;;1.32;100.00;101056.61;103780;1341;22543;-34
2022/11/12 05:51:02;;;;;;;22.70;10.10;;;;;;;1.25;100.00;101057.41;103973;1327;22186;-37
2022/11/12 05:53:27;;;;;;;13.70;7.90;;;;;;;1.17;100.00;101058.09;103994;1340;22207;-33
2022/11/12 05:55:53;;;;;;;14.00;6.70;;;;;;;1.12;100.00;101059.11;103928;1342;22258;-37
2022/11/12 05:58:18;;;;;;;16.50;7.80;;;;;;;1.06;100.00;101060.38;104005;1341;22242;-37
2022/11/12 06:00:44;;;;;;;13.50;7.60;;;;;;;1.09;100.00;101064.18;103984;1341;22075;-37
2022/11/12 06:03:11;;;;;;;20.40;10.40;;;;;;;1.20;100.00;101068.63;103968;1341;22620;-33
2022/11/12 06:05:37;;;;;;;19.30;9.60;;;;;;;1.31;100.00;101072.74;103586;1341;23123;-33
2022/11/12 06:08:04;;;;;;;22.30;11.20;;;;;;;1.42;100.00;101077.89;103850;1341;22664;-33
2022/11/12 06:10:30;;;;;;;27.50;7.30;;;;;;;1.48;100.00;101080.35;103956;1344;23176;-37
2022/11/12 06:12:56;;;;;;;16.00;8.40;;;;;;;1.51;100.00;101080.82;103906;1323;22521;-33
2022/11/12 06:15:25;;;;;;;20.20;11.70;;;;;;;1.50;100.00;101082.63;103907;1333;23003;-34
2022/11/12 06:17:52;;;;;;;20.00;10.70;;;;;;;1.51;100.00;101087.88;103928;1340;22502;-34
2022/11/12 06:20:18;;;;;;;14.70;7.90;;;;;;;1.48;100.00;101087.91;103894;1333;22936;-33
2022/11/12 06:22:44;;;;;;;17.20;9.10;;;;;;;1.51;100.00;101089.48;103963;1333;22056;-37
2022/11/12 06:25:10;;;;;;;19.60;9.10;;;;;;;1.58;100.00;101100.34;103965;1340;22526;-36
2022/11/12 06:27:36;;;;;;;20.50;10.40;;;;;;;1.65;100.00;101102.20;103805;1341;21987;-33
2022/11/12 06:30:03;;;;;;;13.80;8.40;;;;;;;1.68;100.00;101100.98;103748;1333;22213;-34
2022/11/12 06:32:29;;;;;;;20.40;10.10;;;;;;;1.75;100.00;101103.64;103954;1339;22307;-33
2022/11/12 06:34:55;;;;;;;21.60;10.10;;;;;;;1.83;100.00;101104.69;103888;1341;22587;-38
2022/11/12 06:37:21;;;;;;;20.00;9.10;;;;;;;1.93;100.00;101106.42;103741;1341;22443;-33
2022/11/12 06:39:47;;;;;;;14.30;7.90;;;;;;;1.98;100.00;101103.77;103878;1333;22170;-37
2022/11/12 06:42:13;;;;;;;17.50;8.40;;;;;;;2.05;100.00;101103.33;103925;1334;22592;-34
2022/11/12 06:44:38;;;;;;;18.90;8.70;;;;;;;2.12;100.00;101107.80;103921;1340;22582;-36
2022/11/12 06:47:04;;;;;;;14.20;7.30;;;;;;;2.21;100.00;101109.89;103835;1341;22539;-37
2022/11/12 06:49:30;;;;;;;18.30;9.60;;;;;;;2.31;100.00;101112.05;103452;1333;22542;-33
2022/11/12 06:51:55;;;;;;;16.80;7.60;;;;;;;2.41;100.00;101107.16;103606;1340;22551;-33
2022/11/12 06:54:21;;;;;;;17.20;8.80;;;;;;;2.45;100.00;101106.12;103842;1341;22101;-34
2022/11/12 06:56:46;;;;;;;16.20;10.00;;;;;;;2.50;100.00;101097.67;103919;1333;22105;-35
2022/11/12 06:59:12;;;;;;;18.90;9.40;;;;;;;2.52;100.00;101093.86;103921;1341;22499;-34
2022/11/12 07:01:37;;;;;;;29.20;10.80;;;;;;;2.53;100.00;101093.59;103958;1333;22285;-36
2022/11/12 07:04:03;;;;;;;14.70;7.10;;;;;;;2.61;100.00;101087.94;103927;1339;22161;-37
2022/11/12 07:06:28;;;;;;;18.30;8.90;;;;;;;2.68;100.00;101083.17;103903;1334;22527;-34
2022/11/12 07:08:54;;;;;;;18.20;9.20;;;;;;;2.72;100.00;101080.63;103855;1341;22550;-37
2022/11/12 07:11:20;;;;;;;18.40;6.70;;;;;;;2.85;100.00;101076.02;103929;1340;22879;-37
2022/11/12 07:13:46;;;;;;;10.20;6.20;;;;;;;2.92;100.00;101073.42;103840;1333;24388;-33
2022/11/12 07:16:12;;;;;;;22.80;7.30;;;;;;;3.01;100.00;101068.00;103858;1335;22154;-37
2022/11/12 07:18:38;;;;;;;10.70;5.70;;;;;;;3.20;100.00;101068.81;103791;1334;22050;-34
2022/11/12 07:21:06;;;;;;;16.10;8.50;;;;;;;3.32;100.00;101066.05;103553;1340;22602;-33
2022/11/12 07:23:33;;;;;;;10.70;6.70;;;;;;;3.45;100.00;101067.73;103635;1324;22737;-34
2022/11/12 07:26:01;;;;;;;18.00;8.60;;;;;;;3.67;100.00;101070.74;103775;1341;22592;-37
2022/11/12 07:28:27;;;;;;;14.20;7.40;;;;;;;3.94;100.00;101074.14;103942;1341;22603;-39
2022/11/12 07:30:55;;;;;;;15.40;8.50;;;;;;;4.22;100.00;101066.34;103969;1341;22536;-34
2022/11/12 07:33:21;;;;;;;14.20;7.10;;;;;;;4.44;100.00;101056.52;103887;1340;22569;-38
2022/11/12 07:35:47;;;;;;;21.80;10.30;;;;;;;4.73;100.00;101049.18;103526;1342;22514;-34
2022/11/12 07:38:12;;;;;;;13.40;9.00;;;;;;;4.90;100.00;101046.78;103842;1334;22516;-37
2022/11/12 07:40:38;;;;;;;7.90;5.10;;;;;;;5.18;100.00;101038.05;103792;1341;22099;-35
2022/11/12 07:43:03;;;;;;;15.20;7.70;;;;;;;5.31;100.00;101038.64;103897;1340;22523;-37
2022/11/12 07:45:29;;;;;;;11.90;6.50;;;;;;;5.50;100.00;101037.84;103808;1342;23006;-37
2022/11/12 07:47:58;;;;;;;9.80;6.20;;;;;;;5.58;100.00;101041.73;103923;1333;22091;-37
2022/11/12 07:50:23;;;;;;;14.40;8.20;;;;;;;5.55;100.00;101039.71;103737;1336;22502;-37
2022/11/12 07:52:49;;;;;;;11.60;7.30;;;;;;;5.63;100.00;101042.23;103878;1334;22535;-37
2022/11/12 07:55:14;;;;;;;12.50;7.50;;;;;;;5.83;100.00;101035.24;103748;1333;22529;-36
2022/11/12 07:57:40;;;;;;;12.10;7.90;;;;;;;5.92;100.00;101030.16;103310;1341;22517;-35
2022/11/12 08:00:06;;;;;;;14.80;8.10;;;;;;;5.92;100.00;101029.21;103928;1340;22065;-33
2022/11/12 08:02:32;;;;;;;12.70;6.40;;;;;;;6.05;100.00;101033.67;103744;1341;22545;-32
2022/11/12 08:04:58;;;;;;;15.00;7.80;;;;;;;6.16;100.00;101037.19;103870;1334;22454;-34
2022/11/12 08:07:23;;;;;;;10.60;7.80;;;;;;;6.24;100.00;101040.79;103459;1341;22177;-34
2022/11/12 08:09:49;;;;;;;11.70;6.30;;;;;;;6.44;100.00;101043.08;103114;1340;22748;-33
2022/11/12 08:12:15;;;;;;;16.70;7.90;;;;;;;6.83;100.00;101038.48;103922;1341;22536;-34
2022/11/12 08:14:40;;;;;;;12.90;8.90;;;;;;;7.27;100.00;101036.93;103764;1340;23130;-37
2022/11/12 08:17:06;;;;;;;12.70;6.80;;;;;;;7.61;100.00;101036.13;103744;1328;22182;-34
2022/11/12 08:19:31;;;;;;;13.50;7.10;;;;;;;7.88;100.00;101033.85;103867;1340;22512;-38
2022/11/12 08:21:57;;;;;;;10.80;6.90;;;;;;;8.12;100.00;101030.73;103944;1340;22517;-35
2022/11/12 08:24:22;;;;;;;10.20;4.10;;;;;;;8.41;100.00;101029.02;103943;1341;22549;-35
2022/11/12 08:26:48;;;;;;;11.90;5.80;;;;;;;8.67;100.00;101019.77;103724;1333;23041;-34
2022/11/12 08:29:14;;;;;;;8.40;4.40;;;;;;;8.78;100.00;101016.05;103847;1327;22155;-34
2022/11/12 08:31:40;;;;;;;10.80;7.60;;;;;;;8.90;99.62;101020.10;103982;1340;22254;-35
2022/11/12 08:36:35;;;;;;;11.40;5.80;;;;;;;9.00;99.30;101029.34;103733;1341;22468;-34
2022/11/12 08:39:01;;;;;;;13.70;7.50;;;;;;;9.11;97.71;101022.55;103955;1334;22208;-35
2022/11/12 08:41:26;;;;;;;13.90;7.90;;;;;;;9.44;97.48;101022.98;103969;1326;22273;-37
2022/11/12 08:43:52;;;;;;;12.60;6.80;;;;;;;9.52;95.86;101021.77;103951;1336;22138;-35
2022/11/12 08:46:17;;;;;;;12.00;6.80;;;;;;;9.56;95.61;101026.30;103936;1341;22227;-35
2022/11/12 08:48:43;;;;;;;9.40;6.30;;;;;;;9.73;93.26;101026.20;103825;1333;22532;-35
2022/11/12 08:51:09;;;;;;;9.30;6.20;;;;;;;9.70;93.30;101023.05;103929;1341;22545;-36
2022/11/12 08:53:34;;;;;;;8.90;5.60;;;;;;;9.96;92.30;101023.04;103861;1341;22063;-35
2022/11/12 08:56:00;;;;;;;8.40;4.50;;;;;;;9.85;89.74;101019.25;103968;1333;22059;-35
2022/11/12 08:58:25;;;;;;;18.00;6.40;;;;;;;10.01;90.65;101010.69;103948;1334;22259;-35
2022/11/12 09:00:52;;;;;;;9.60;5.50;;;;;;;10.15;89.43;101012.00;103832;1340;22682;-35
2022/11/12 09:03:19;;;;;;;10.20;6.50;;;;;;;10.12;89.08;101016.43;103836;1341;22562;-38
2022/11/12 09:05:45;;;;;;;6.30;4.50;;;;;;;10.23;87.72;101023.32;103438;1340;22154;-38
2022/11/12 09:08:13;;;;;;;9.40;6.40;;;;;;;10.23;87.58;101020.60;103999;1333;22503;-37
2022/11/12 09:10:38;;;;;;;8.30;5.40;;;;;;;10.26;88.58;101021.66;103850;1333;22498;-35
2022/11/12 09:13:04;;;;;;;6.60;5.30;;;;;;;10.39;88.22;101022.98;103260;1341;22275;-35
2022/11/12 09:15:30;;;;;;;8.90;4.30;;;;;;;10.39;89.10;101021.55;103969;1333;22523;-36
2022/11/12 09:17:56;;;;;;;8.80;5.90;;;;;;;10.67;87.54;101013.21;103619;1341;24414;-38
2022/11/12 09:20:23;;;;;;;10.20;6.60;;;;;;;10.69;86.68;101012.58;103979;1334;22428;-38
2022/11/12 09:22:49;;;;;;;10.60;5.40;;;;;;;10.61;86.28;101013.77;103941;1333;22504;-38
2022/11/12 09:25:14;;;;;;;6.70;3.60;;;;;;;10.61;86.13;101016.34;103809;1341;22228;-36
2022/11/12 09:27:40;;;;;;;13.30;6.20;;;;;;;10.89;85.14;101016.33;103879;1340;22069;-36
2022/11/12 09:30:07;;;;;;;7.00;4.80;;;;;;;10.98;85.11;101014.80;103796;1332;22537;-38
2022/11/12 09:32:32;;;;;;;13.80;7.10;;;;;;;11.08;84.98;101015.33;103970;1341;22566;-38
2022/11/12 09:34:58;;;;;;;;;;;;;;;11.08;85.12;101023.65;104008;1333;22009;-36
2022/11/12 09:37:24;;;;;;;7.90;5.60;;;;;;;11.11;84.90;101029.59;103872;1333;22415;-35
2022/11/12 09:39:49;;;;;;;12.40;6.00;;;;;;;11.37;83.30;101027.59;103905;1327;22234;-38
2022/11/12 09:42:17;;;;;;;9.70;6.60;;;;;;;11.36;83.40;101024.60;103935;1333;22093;-36
2022/11/12 09:44:45;;;;;;;9.60;5.30;;;;;;;11.71;85.24;101017.70;103764;1340;22511;-41
2022/11/12 09:47:14;;;;;;;7.60;5.30;;;;;;;11.99;80.86;101021.48;103950;1341;22426;-36
2022/11/12 09:49:44;;;;;;;10.40;5.80;;;;;;;12.04;79.05;101024.70;103985;1341;22418;-38
2022/11/12 09:52:15;;;;;;;7.10;2.80;;;;;;;11.94;78.69;101032.61;103972;1337;22207;-38
2022/11/12 09:54:41;;;;;;;9.10;5.30;;;;;;;11.68;79.54;101035.24;103983;1340;22239;-35
2022/11/12 09:57:10;;;;;;;9.20;4.80;;;;;;;12.19;80.81;101032.27;103867;1341;25442;-35
2022/11/12 09:59:36;;;;;;;8.20;5.30;;;;;;;12.40;76.31;101030.17;103491;1340;22517;-37
2022/11/12 10:02:09;;;;;;;11.40;5.70;;;;;;;12.40;76.76;101031.08;103880;1341;22201;-38
2022/11/12 10:04:38;;;;;;;5.60;4.00;;;;;;;12.34;79.48;101031.35;103978;1334;22371;-38
2022/11/12 10:07:12;;;;;;;6.50;4.60;;;;;;;12.86;75.14;101031.41;103973;1341;22029;-35
2022/11/12 10:09:43;;;;;;;5.00;4.50;;;;;;;12.78;77.30;101032.80;103979;1333;22166;-38
2022/11/12 10:14:48;;;;;;;7.50;3.60;;;;;;;13.37;73.88;101022.92;103988;1333;22059;-35
2022/11/12 10:17:18;;;;;;;10.30;3.30;;;;;;;13.28;71.86;101020.34;103959;1341;22553;-35
2022/11/12 10:19:48;;;;;;;3.00;2.30;;;;;;;13.61;71.18;101026.29;103926;1340;22052;-35
2022/11/12 10:22:23;;;;;;;8.50;4.30;;;;;;;13.62;71.34;101028.10;103874;1334;22378;-38
2022/11/12 10:24:48;;;;;;;5.60;4.20;;;;;;;13.97;71.56;101022.42;103916;1341;22781;-35
2022/11/12 10:27:18;;;;;;;7.70;3.50;;;;;;;14.10;67.02;101024.90;103967;1333;22211;-38
2022/11/12 10:29:47;;;;;;;4.10;2.80;;;;;;;13.72;69.02;101024.31;103882;1341;22547;-37
2022/11/12 10:32:14;;;;;;;9.10;4.30;;;;;;;14.06;67.94;101026.09;103993;1334;22517;-35
2022/11/12 10:34:40;;;;;;;8.60;4.30;;;;;;;13.86;67.35;101026.13;103983;1341;22530;-35
2022/11/12 10:37:14;;;;;;;5.80;4.10;;;;;;;14.20;67.61;101024.95;103945;1334;22598;-35
2022/11/12 10:39:41;;;;;;;7.40;3.80;;;;;;;14.73;65.63;101030.02;103708;1327;22078;-35
2022/11/12 10:42:09;;;;;;;3.80;2.90;;;;;;;14.60;65.86;101021.18;103990;1341;22059;-37
2022/11/12 10:44:35;;;;;;;5.20;3.60;;;;;;;15.00;63.78;101014.52;103503;1341;22648;-35
2022/11/12 10:47:08;;;;;;;12.90;4.90;;;;;;;15.03;60.67;101016.85;103742;1340;22598;-38
2022/11/12 10:49:34;;;;;;;5.20;3.50;;;;;;;15.06;60.70;101014.40;103783;1341;22516;-35
2022/11/12 10:51:59;;;;;;;7.90;4.70;;;;;;;14.69;61.81;101019.92;103625;1341;22510;-38
2022/11/12 10:54:25;;;;;;;7.80;4.20;;;;;;;14.87;63.49;101014.87;103949;1341;22249;-36
2022/11/12 10:56:51;;;;;;;20.20;10.80;;;;;;;15.13;62.10;101014.09;103981;1336;22187;-37
2022/11/12 10:59:21;;;;;;;22.50;12.50;;;;;;;15.48;61.08;101013.42;103882;1334;22210;-36
2022/11/12 11:01:53;;;;;;;8.20;4.30;;;;;;;15.30;60.50;101010.53;103988;1341;22491;-33
2022/11/12 11:04:26;;;;;;;8.70;4.90;;;;;;;15.18;60.88;101010.20;103963;1340;22538;-36
2022/11/12 11:06:57;;;;;;;6.90;3.80;;;;;;;15.41;60.34;101003.20;103841;1334;22528;-36
2022/11/12 11:09:22;;;;;;;10.80;5.20;;;;;;;15.29;60.24;101009.02;103492;1341;22542;-35
2022/11/12 11:11:49;;;;;;;4.20;2.70;;;;;;;15.57;59.34;101007.29;103614;1341;22267;-36
2022/11/12 11:14:20;;;;;;;4.20;2.80;;;;;;;15.58;58.20;101007.98;103785;1334;22191;-37
2022/11/12 11:16:50;;;;;;;11.70;6.20;;;;;;;15.43;58.55;101003.40;103882;1341;22524;-36
2022/11/12 11:19:15;;;;;;;22.20;5.50;;;;;;;15.31;59.52;100998.17;103752;1341;22718;-34
2022/11/12 11:21:48;;;;;;;6.00;3.40;;;;;;;15.51;59.36;100995.05;103761;1340;22225;-35
2022/11/12 11:24:20;;;;;;;5.60;3.90;;;;;;;15.58;58.64;100998.80;103885;1341;23128;-34
2022/11/12 11:26:49;;;;;;;6.50;3.90;;;;;;;15.80;58.16;100998.73;103824;1340;23103;-36
2022/11/12 11:29:33;;;;;;;6.00;3.70;;;;;;;15.61;56.88;101001.92;103925;1334;22159;-36
2022/11/12 11:32:03;;;;;;;10.00;4.20;;;;;;;15.44;58.09;100996.22;103895;1340;22208;-36
2022/11/12 11:34:32;;;;;;;69.00;21.80;;;;;;;15.47;58.71;100992.96;103991;1333;22640;-34
2022/11/12 11:37:03;;;;;;;47.00;17.90;;;;;;;15.77;59.55;100989.54;103985;1341;22251;-37
2022/11/12 11:39:31;;;;;;;10.20;5.80;;;;;;;15.67;55.84;100996.45;103955;1341;22094;-37